Time;durP1;ratioP1;P1;durP2;ratioP2;P2;SDS_P1;SDS_P2;PMS_P1;PMS_P2;Temp;Humidity;BMP_temperature;BMP_pressure;BME280_temperature;BME280_humidity;BME280_pressure;Samples;Min_cycle;Max_cycle;Signal;HPM_P1;HPM_P2
2022/04/18 00:00:51;;;;;;;1.48;0.85;;;;;;;13.78;100.00;99775.78;7393399;19;20018;-61
2022/04/18 00:03:17;;;;;;;3.40;1.33;;;;;;;13.69;100.00;99766.31;7396424;19;20015;-61
2022/04/18 00:05:44;;;;;;;2.03;1.10;;;;;;;13.59;100.00;99767.00;7394159;19;20468;-61
2022/04/18 00:08:10;;;;;;;0.93;0.40;;;;;;;13.49;100.00;99769.22;7393711;19;20018;-61
2022/04/18 00:10:36;;;;;;;3.13;1.10;;;;;;;13.35;100.00;99769.38;7393656;19;20007;-61
2022/04/18 00:13:02;;;;;;;1.45;0.68;;;;;;;13.24;100.00;99770.03;7392054;19;20010;-61
2022/04/18 00:15:29;;;;;;;0.80;0.45;;;;;;;13.17;100.00;99769.72;7392993;19;20021;-61
2022/04/18 00:17:55;;;;;;;0.60;0.45;;;;;;;13.07;100.00;99766.34;7392195;19;20010;-60
2022/04/18 00:20:21;;;;;;;0.50;0.50;;;;;;;13.01;100.00;99762.69;7390182;19;20042;-61
2022/04/18 00:22:47;;;;;;;4.32;0.52;;;;;;;12.95;100.00;99761.84;7393186;19;20498;-61
2022/04/18 00:25:13;;;;;;;2.67;0.40;;;;;;;12.88;100.00;99765.88;7392411;19;20021;-61
2022/04/18 00:27:39;;;;;;;0.47;0.47;;;;;;;12.82;100.00;99767.09;7390369;19;20107;-61
2022/04/18 00:30:06;;;;;;;1.23;0.60;;;;;;;12.74;100.00;99766.75;7396229;19;20006;-61
2022/04/18 00:32:34;;;;;;;1.23;0.60;;;;;;;12.71;100.00;99772.56;7397593;19;20454;-61
2022/04/18 00:35:02;;;;;;;0.35;0.35;;;;;;;12.72;100.00;99762.91;7399509;19;20549;-61
2022/04/18 00:37:28;;;;;;;0.85;0.20;;;;;;;12.68;100.00;99765.16;7399405;19;20007;-61
2022/04/18 00:39:54;;;;;;;0.68;0.60;;;;;;;12.81;100.00;99760.72;7398624;19;20350;-61
2022/04/18 00:42:20;;;;;;;1.08;0.60;;;;;;;12.82;100.00;99761.50;7399963;19;20023;-61
2022/04/18 00:44:47;;;;;;;0.77;0.77;;;;;;;12.84;100.00;99753.41;7398958;19;20475;-61
2022/04/18 00:47:13;;;;;;;1.45;0.90;;;;;;;12.84;100.00;99753.41;7400058;19;20011;-61
2022/04/18 00:49:40;;;;;;;1.50;0.32;;;;;;;12.84;100.00;99753.41;7401386;19;20006;-61
2022/04/18 00:52:07;;;;;;;2.65;0.73;;;;;;;12.90;100.00;99751.41;7398130;19;20014;-61
2022/04/18 00:54:33;;;;;;;0.65;0.60;;;;;;;13.01;100.00;99751.53;7399559;19;20048;-61
2022/04/18 00:57:01;;;;;;;0.43;0.40;;;;;;;13.02;100.00;99758.63;7399364;19;20062;-61
2022/04/18 00:59:31;;;;;;;1.42;0.95;;;;;;;13.03;100.00;99760.19;7398360;19;20066;-61
2022/04/18 01:01:58;;;;;;;0.38;0.38;;;;;;;13.05;100.00;99768.88;7397248;19;20039;-61
2022/04/18 01:04:24;;;;;;;1.77;0.60;;;;;;;12.98;100.00;99758.09;7396987;19;20011;-61
2022/04/18 01:06:50;;;;;;;0.47;0.47;;;;;;;12.90;100.00;99763.38;7400346;19;20335;-61
2022/04/18 01:09:18;;;;;;;1.42;0.40;;;;;;;12.89;100.00;99770.19;7397197;19;20015;-61
2022/04/18 01:11:44;;;;;;;0.10;0.10;;;;;;;12.88;100.00;99773.50;7396931;19;20371;-61
2022/04/18 01:14:22;;;;;;;0.68;0.43;;;;;;;12.77;100.00;99770.59;7398684;19;20026;-61
2022/04/18 01:16:54;;;;;;;0.30;0.30;;;;;;;12.72;100.00;99774.09;7397995;19;20019;-60
2022/04/18 01:19:24;;;;;;;0.90;0.32;;;;;;;12.62;100.00;99769.91;7395828;19;20467;-61
2022/04/18 01:22:01;;;;;;;0.43;0.43;;;;;;;12.57;100.00;99762.25;7396040;19;20459;-61
2022/04/18 01:30:22;;;;;;;0.32;0.13;;;;;;;12.56;100.00;99760.72;7396457;19;20409;-61
2022/04/18 01:32:50;;;;;;;0.50;0.50;;;;;;;12.52;100.00;99760.13;7394993;19;20039;-61
2022/04/18 01:35:16;;;;;;;0.35;0.35;;;;;;;12.43;100.00;99763.09;7395976;19;20031;-61
2022/04/18 01:37:42;;;;;;;2.05;0.55;;;;;;;12.25;100.00;99760.59;7400064;19;20408;-61
2022/04/18 01:40:12;;;;;;;0.30;0.30;;;;;;;12.10;100.00;99755.88;7395372;19;20460;-61
2022/04/18 01:42:38;;;;;;;1.45;0.73;;;;;;;12.00;100.00;99760.03;7394897;19;20392;-61
2022/04/18 01:45:05;;;;;;;0.90;0.38;;;;;;;11.92;100.00;99763.72;7395400;19;20007;-61
2022/04/18 01:47:31;;;;;;;1.33;0.32;;;;;;;11.85;100.00;99764.91;7398258;19;20463;-61
2022/04/18 01:50:01;;;;;;;1.45;0.60;;;;;;;11.77;100.00;99766.56;7396871;19;20038;-61
2022/04/18 01:52:28;;;;;;;1.65;0.43;;;;;;;11.78;100.00;99765.31;7393786;19;20018;-60
2022/04/18 01:54:54;;;;;;;0.40;0.28;;;;;;;11.70;100.00;99764.19;7395347;19;20015;-61
2022/04/18 01:57:21;;;;;;;0.30;0.30;;;;;;;11.62;100.00;99767.84;7395298;19;20459;-61
2022/04/18 01:59:47;;;;;;;1.75;0.60;;;;;;;11.55;100.00;99769.00;7395363;19;20025;-61
2022/04/18 02:02:13;;;;;;;0.20;0.20;;;;;;;11.46;100.00;99765.56;7394686;19;20451;-61
2022/04/18 02:04:39;;;;;;;0.15;0.15;;;;;;;11.34;100.00;99770.19;7395092;19;20509;-61
2022/04/18 02:07:10;;;;;;;0.47;0.47;;;;;;;11.31;100.00;99768.38;7398709;19;20021;-61
2022/04/18 02:09:38;;;;;;;0.47;0.47;;;;;;;11.26;100.00;99769.06;7395896;19;20007;-60
2022/04/18 02:12:07;;;;;;;0.25;0.25;;;;;;;11.20;100.00;99759.81;7393341;19;20038;-61
2022/04/18 02:14:43;;;;;;;0.32;0.32;;;;;;;11.16;100.00;99765.59;7395697;19;20455;-61
2022/04/18 02:17:09;;;;;;;1.95;0.52;;;;;;;11.23;100.00;99764.44;7396245;19;20014;-60
2022/04/18 02:19:35;;;;;;;0.28;0.28;;;;;;;11.25;100.00;99759.16;7394058;19;20110;-60
2022/04/18 02:22:01;;;;;;;0.52;0.52;;;;;;;11.28;100.00;99756.16;7396258;19;20494;-60
2022/04/18 02:24:28;;;;;;;0.20;0.20;;;;;;;11.27;100.00;99754.63;7395665;19;20018;-60
2022/04/18 02:26:54;;;;;;;0.65;0.28;;;;;;;11.33;100.00;99763.84;7394805;19;20502;-60
2022/04/18 02:29:20;;;;;;;1.13;0.50;;;;;;;11.38;100.00;99754.03;7394573;19;20364;-60
2022/04/18 02:34:32;;;;;;;0.30;0.30;;;;;;;11.39;100.00;99750.00;7397853;19;20011;-60
2022/04/18 02:37:00;;;;;;;0.95;0.30;;;;;;;11.33;100.00;99757.50;7395964;19;20474;-60
2022/04/18 02:39:30;;;;;;;0.37;0.37;;;;;;;11.31;100.00;99755.19;7394786;19;20025;-60
2022/04/18 02:41:57;;;;;;;0.20;0.20;;;;;;;11.36;100.00;99750.97;7396465;19;20014;-60
2022/04/18 02:44:26;;;;;;;2.30;0.40;;;;;;;11.45;100.00;99750.84;7394174;19;20014;-60
2022/04/18 02:46:53;;;;;;;0.85;0.45;;;;;;;11.56;100.00;99753.03;7393914;19;20359;-60
2022/04/18 02:49:19;;;;;;;0.50;0.50;;;;;;;11.55;100.00;99749.47;7394167;19;20011;-60
2022/04/18 02:51:46;;;;;;;0.45;0.35;;;;;;;11.54;100.00;99744.41;7392180;19;20082;-61
2022/04/18 02:54:17;;;;;;;1.13;0.35;;;;;;;11.56;100.00;99748.25;7390927;19;20014;-60
2022/04/18 02:56:44;;;;;;;0.43;0.40;;;;;;;11.60;100.00;99742.44;7394528;19;20031;-60
2022/04/18 02:59:10;;;;;;;0.40;0.40;;;;;;;11.71;100.00;99745.44;7393764;19;20010;-60
2022/04/18 03:01:37;;;;;;;0.73;0.52;;;;;;;11.72;100.00;99750.50;7393003;19;20336;-60
2022/04/18 03:04:04;;;;;;;1.95;0.30;;;;;;;11.63;100.00;99747.81;7394983;19;20340;-60
2022/04/18 03:06:31;;;;;;;0.40;0.30;;;;;;;11.51;100.00;99751.69;7393304;19;20074;-60
2022/04/18 03:08:57;;;;;;;0.30;0.30;;;;;;;11.42;100.00;99749.81;7394333;19;20025;-60
2022/04/18 03:11:23;;;;;;;0.15;0.15;;;;;;;11.32;100.00;99747.63;7391215;19;20019;-60
2022/04/18 03:13:49;;;;;;;0.52;0.50;;;;;;;11.20;100.00;99749.44;7393540;19;20031;-60
2022/04/18 03:16:36;;;;;;;0.38;0.32;;;;;;;11.06;100.00;99753.03;7392781;19;20025;-60
2022/04/18 03:19:02;;;;;;;0.30;0.30;;;;;;;10.98;100.00;99753.91;7393870;19;20018;-60
2022/04/18 03:21:30;;;;;;;0.13;0.13;;;;;;;10.92;100.00;99755.78;7392174;19;20070;-60
2022/04/18 03:24:00;;;;;;;0.40;0.30;;;;;;;10.70;100.00;99749.84;7395506;19;20011;-60
2022/04/18 03:26:37;;;;;;;0.60;0.50;;;;;;;10.63;100.00;99751.00;7392003;19;20490;-60
2022/04/18 03:29:09;;;;;;;1.35;0.43;;;;;;;10.52;100.00;99757.13;7391734;19;20014;-60
2022/04/18 03:31:36;;;;;;;5.95;0.80;;;;;;;10.49;100.00;99752.50;7391910;19;20014;-60
2022/04/18 03:34:03;;;;;;;0.40;0.40;;;;;;;10.39;100.00;99741.91;7396292;19;20032;-60
2022/04/18 03:42:00;;;;;;;4.65;0.40;;;;;;;10.31;100.00;99751.91;7393427;19;20027;-60
2022/04/18 03:44:26;;;;;;;0.25;0.25;;;;;;;10.26;100.00;99752.53;7392771;19;20074;-60
2022/04/18 03:46:52;;;;;;;0.30;0.30;;;;;;;10.27;100.00;99746.50;7396797;19;20045;-60
2022/04/18 03:49:19;;;;;;;0.20;0.20;;;;;;;10.24;100.00;99744.69;7392554;19;20018;-60
2022/04/18 03:51:48;;;;;;;0.30;0.30;;;;;;;10.21;100.00;99736.50;7391046;19;20017;-60
2022/04/18 03:54:14;;;;;;;0.30;0.30;;;;;;;10.24;100.00;99736.34;7392007;19;20357;-60
2022/04/18 03:56:41;;;;;;;0.35;0.17;;;;;;;10.23;100.00;99734.78;7391562;19;20044;-60
2022/04/18 03:59:08;;;;;;;0.38;0.38;;;;;;;10.17;100.00;99747.03;7395985;19;20027;-60
2022/04/18 04:01:46;;;;;;;0.47;0.47;;;;;;;10.14;100.00;99737.63;7391038;19;20006;-60
2022/04/18 04:04:12;;;;;;;6.97;1.17;;;;;;;10.19;100.00;99742.53;7393741;19;20011;-60
2022/04/18 04:06:39;;;;;;;0.57;0.40;;;;;;;10.20;100.00;99735.72;7398804;19;20014;-60
2022/04/18 04:09:07;;;;;;;3.72;0.47;;;;;;;10.17;100.00;99731.13;7401120;19;20355;-60
2022/04/18 04:11:34;;;;;;;0.73;0.30;;;;;;;10.27;100.00;99737.38;7402207;19;20018;-60
2022/04/18 04:14:03;;;;;;;0.20;0.20;;;;;;;10.38;100.00;99743.94;7399569;19;20015;-60
2022/04/18 04:16:30;;;;;;;0.20;0.20;;;;;;;10.47;100.00;99746.66;7398467;19;20368;-60
2022/04/18 04:18:57;;;;;;;0.20;0.20;;;;;;;10.42;100.00;99744.50;7399122;19;20021;-60
2022/04/18 04:21:23;;;;;;;0.10;0.10;;;;;;;10.38;100.00;99743.16;7397969;19;20021;-60
2022/04/18 04:23:53;;;;;;;0.35;0.35;;;;;;;10.34;100.00;99748.16;7398256;19;20117;-60
2022/04/18 04:26:19;;;;;;;0.30;0.30;;;;;;;10.30;100.00;99751.13;7400352;19;20034;-60
2022/04/18 04:28:50;;;;;;;0.28;0.28;;;;;;;10.31;100.00;99752.66;7400138;19;20039;-60
2022/04/18 04:31:25;;;;;;;0.20;0.20;;;;;;;10.35;100.00;99752.47;7396477;19;20011;-60
2022/04/18 04:33:51;;;;;;;0.20;0.20;;;;;;;10.34;100.00;99751.69;7400574;19;20014;-59
2022/04/18 04:36:17;;;;;;;0.10;0.10;;;;;;;10.38;100.00;99755.06;7398384;19;20026;-60
2022/04/18 04:38:45;;;;;;;0.35;0.35;;;;;;;10.37;100.00;99752.78;7397524;19;20027;-60
2022/04/18 04:41:22;;;;;;;0.50;0.50;;;;;;;10.33;100.00;99760.53;7397162;19;20019;-60
2022/04/18 04:43:54;;;;;;;0.25;0.25;;;;;;;10.24;100.00;99758.59;7397805;19;20021;-60
2022/04/18 04:46:29;;;;;;;3.72;0.30;;;;;;;10.23;100.00;99761.84;7398341;19;20351;-60
2022/04/18 04:49:09;;;;;;;0.65;0.40;;;;;;;10.18;100.00;99763.25;7397751;19;20348;-60
2022/04/18 04:51:36;;;;;;;0.20;0.20;;;;;;;10.20;100.00;99768.38;7396233;19;20467;-60
2022/04/18 04:54:02;;;;;;;0.40;0.40;;;;;;;10.21;100.00;99765.09;7398544;19;20629;-60
2022/04/18 04:56:33;;;;;;;0.30;0.30;;;;;;;10.27;100.00;99765.97;7398152;19;20014;-60
2022/04/18 04:59:03;;;;;;;0.30;0.30;;;;;;;10.28;100.00;99764.75;7399929;19;20018;-60
2022/04/18 05:01:29;;;;;;;2.90;1.02;;;;;;;10.29;100.00;99766.25;7397715;19;20010;-60
2022/04/18 05:04:01;;;;;;;0.30;0.30;;;;;;;10.27;100.00;99768.75;7397293;19;20011;-60
2022/04/18 05:06:28;;;;;;;8.18;0.40;;;;;;;10.29;100.00;99776.63;7397615;19;20070;-60
2022/04/18 05:08:57;;;;;;;1.65;0.75;;;;;;;10.28;100.00;99770.31;7399050;19;20069;-59
2022/04/18 05:11:25;;;;;;;0.30;0.30;;;;;;;10.38;100.00;99773.78;7395170;19;20007;-60
2022/04/18 05:13:53;;;;;;;0.57;0.57;;;;;;;10.45;100.00;99779.75;7395713;19;20010;-60
2022/04/18 05:16:27;;;;;;;0.17;0.17;;;;;;;10.58;100.00;99776.72;7394332;19;20014;-60
2022/04/18 05:19:10;;;;;;;0.65;0.55;;;;;;;10.70;100.00;99780.47;7396968;19;20022;-60
2022/04/18 05:21:37;;;;;;;1.52;0.60;;;;;;;10.82;100.00;99790.56;7396049;19;20010;-60
2022/04/18 05:24:11;;;;;;;0.50;0.50;;;;;;;10.77;100.00;99782.88;7397077;19;20467;-60
2022/04/18 05:26:39;;;;;;;0.50;0.50;;;;;;;10.91;100.00;99777.34;7398470;19;20022;-60
2022/04/18 05:29:05;;;;;;;0.10;0.10;;;;;;;11.03;100.00;99783.84;7396970;19;20010;-60
2022/04/18 05:31:32;;;;;;;0.20;0.20;;;;;;;11.11;100.00;99779.44;7394490;19;20014;-60
2022/04/18 05:34:00;;;;;;;1.50;0.77;;;;;;;11.26;100.00;99783.00;7402152;19;20022;-60
2022/04/18 05:36:43;;;;;;;0.40;0.40;;;;;;;11.37;100.00;99772.00;7398987;19;20011;-60
2022/04/18 05:39:14;;;;;;;;;;;;;;;11.49;100.00;99776.53;7400307;19;20015;-60
2022/04/18 05:41:45;;;;;;;0.45;0.40;;;;;;;11.56;100.00;99780.94;7396238;19;19971;-60
2022/04/18 05:44:16;;;;;;;;;;;;;;;11.59;100.00;99783.50;7397044;19;20010;-60
2022/04/18 05:46:56;;;;;;;5.00;0.57;;;;;;;11.66;100.00;99785.13;7395888;19;20242;-60
2022/04/18 05:49:24;;;;;;;3.00;0.30;;;;;;;11.72;100.00;99799.94;7395884;19;20356;-60
2022/04/18 05:51:50;;;;;;;4.78;1.38;;;;;;;11.77;100.00;99797.25;7395152;19;20092;-60
2022/04/18 05:54:17;;;;;;;0.47;0.22;;;;;;;11.86;100.00;99799.16;7396237;19;20039;-60
2022/04/18 05:56:53;;;;;;;1.50;0.43;;;;;;;11.93;100.00;99802.31;7396612;19;20021;-60
2022/04/18 05:59:34;;;;;;;0.30;0.30;;;;;;;11.97;100.00;99802.88;7396163;19;20022;-60
2022/04/18 06:02:29;;;;;;;0.57;0.40;;;;;;;11.99;100.00;99802.41;7395897;19;20007;-61
2022/04/18 06:05:03;;;;;;;1.08;0.57;;;;;;;11.99;100.00;99802.41;7395031;19;20077;-60
2022/04/18 06:07:52;;;;;;;2.65;0.85;;;;;;;12.06;100.00;99811.09;7396300;19;20006;-60
2022/04/18 06:10:24;;;;;;;1.17;0.63;;;;;;;12.08;100.00;99805.81;7400770;19;20467;-60
2022/04/18 06:13:01;;;;;;;0.20;0.20;;;;;;;12.10;100.00;99808.91;7392744;19;20501;-60
2022/04/18 06:15:28;;;;;;;1.30;0.82;;;;;;;12.12;100.00;99816.78;7398725;19;20014;-60
2022/04/18 06:17:56;;;;;;;0.40;0.30;;;;;;;12.12;100.00;99814.00;7398974;19;20014;-61
2022/04/18 06:20:22;;;;;;;0.65;0.40;;;;;;;12.28;100.00;99807.09;7398756;19;20084;-60
2022/04/18 06:22:49;;;;;;;3.13;1.40;;;;;;;12.37;100.00;99809.72;7394435;19;20017;-60
2022/04/18 06:25:15;;;;;;;0.75;0.50;;;;;;;12.44;100.00;99814.91;7394568;19;20017;-60
2022/04/18 06:27:42;;;;;;;0.17;0.17;;;;;;;12.48;100.00;99809.88;7393990;19;20014;-60
2022/04/18 06:30:08;;;;;;;0.38;0.38;;;;;;;12.57;100.00;99807.72;7394268;19;20070;-60
2022/04/18 06:32:58;;;;;;;0.20;0.20;;;;;;;12.60;100.00;99811.56;7394433;19;20479;-60
2022/04/18 06:35:24;;;;;;;0.55;0.20;;;;;;;12.68;100.00;99815.44;7397436;19;20459;-60
2022/04/18 06:37:50;;;;;;;9.32;1.08;;;;;;;12.70;100.00;99816.50;7398898;19;20077;-60
2022/04/18 06:40:36;;;;;;;0.20;0.20;;;;;;;12.62;100.00;99820.97;7397633;19;20002;-60
2022/04/18 06:43:04;;;;;;;0.30;0.30;;;;;;;12.63;100.00;99816.16;7395953;19;20014;-60
2022/04/18 06:45:32;;;;;;;0.30;0.30;;;;;;;12.66;100.00;99827.13;7396988;19;20010;-61
2022/04/18 06:47:59;;;;;;;0.30;0.30;;;;;;;12.70;100.00;99830.47;7393500;19;20358;-60
2022/04/18 06:50:45;;;;;;;10.85;0.55;;;;;;;12.67;100.00;99833.47;7394533;19;20069;-60
2022/04/18 06:53:31;;;;;;;0.20;0.20;;;;;;;12.72;100.00;99841.16;7392724;19;20362;-60
2022/04/18 06:59:13;;;;;;;0.20;0.20;;;;;;;12.82;100.00;99836.97;7393447;19;20022;-60
2022/04/18 07:01:40;;;;;;;0.80;0.68;;;;;;;12.88;100.00;99848.97;7392115;19;20499;-60
2022/04/18 07:04:07;;;;;;;0.55;0.52;;;;;;;12.93;100.00;99857.41;7393245;19;20019;-60
2022/04/18 07:06:33;;;;;;;0.30;0.30;;;;;;;13.02;100.00;99853.69;7394433;19;20032;-61
2022/04/18 07:09:00;;;;;;;2.78;0.32;;;;;;;13.08;100.00;99845.41;7395269;19;20074;-60
2022/04/18 07:11:48;;;;;;;0.20;0.20;;;;;;;13.19;100.00;99863.03;7393172;19;20014;-60
2022/04/18 07:14:17;;;;;;;0.38;0.35;;;;;;;13.27;100.00;99863.38;7393057;19;20018;-61
2022/04/18 07:16:45;;;;;;;0.40;0.40;;;;;;;13.26;100.00;99865.41;7393682;19;20014;-60
2022/04/18 07:19:16;;;;;;;0.50;0.28;;;;;;;13.25;100.00;99875.06;7395315;19;20013;-60
2022/04/18 07:21:42;;;;;;;0.20;0.20;;;;;;;13.31;100.00;99875.88;7396142;19;20017;-61
2022/04/18 07:24:08;;;;;;;0.10;0.10;;;;;;;13.43;100.00;99869.13;7397024;19;20002;-61
2022/04/18 07:26:35;;;;;;;0.63;0.30;;;;;;;13.44;100.00;99873.47;7392718;19;20026;-61
2022/04/18 07:29:02;;;;;;;0.30;0.30;;;;;;;13.58;100.00;99874.59;7394901;19;20038;-61
2022/04/18 07:31:28;;;;;;;1.45;0.30;;;;;;;13.75;100.00;99869.16;7391715;19;20007;-61
2022/04/18 07:33:54;;;;;;;3.83;0.43;;;;;;;13.89;100.00;99862.63;7396398;19;20006;-61
2022/04/18 07:36:22;;;;;;;5.20;0.47;;;;;;;13.97;100.00;99874.91;7395521;19;20049;-61
2022/04/18 07:38:50;;;;;;;0.55;0.55;;;;;;;14.04;100.00;99868.84;7392946;19;20011;-61
2022/04/18 07:41:25;;;;;;;1.05;0.40;;;;;;;14.11;100.00;99873.97;7395784;19;20010;-61
2022/04/18 07:43:54;;;;;;;0.45;0.20;;;;;;;14.16;100.00;99870.47;7395752;19;20027;-61
2022/04/18 07:46:21;;;;;;;6.22;0.52;;;;;;;14.24;100.00;99877.13;7397669;19;20025;-61
2022/04/18 07:48:52;;;;;;;0.28;0.28;;;;;;;14.22;100.00;99876.84;7396317;19;20018;-61
2022/04/18 07:51:35;;;;;;;0.45;0.45;;;;;;;14.23;100.00;99878.38;7391534;19;20011;-61
2022/04/18 07:54:06;;;;;;;0.22;0.20;;;;;;;14.19;100.00;99886.25;7390770;19;20015;-61
2022/04/18 07:56:35;;;;;;;0.15;0.15;;;;;;;14.18;100.00;99881.94;7391383;19;20036;-61
2022/04/18 07:59:02;;;;;;;0.20;0.20;;;;;;;14.21;100.00;99892.13;7392328;19;20017;-61
2022/04/18 08:01:32;;;;;;;0.30;0.30;;;;;;;14.21;100.00;99890.09;7391868;19;20014;-61
2022/04/18 08:04:00;;;;;;;0.25;0.20;;;;;;;14.21;100.00;99889.31;7390827;19;20014;-61
2022/04/18 08:06:29;;;;;;;0.38;0.38;;;;;;;14.14;100.00;99884.19;7391363;19;20049;-61
2022/04/18 08:09:05;;;;;;;0.25;0.25;;;;;;;14.09;100.00;99888.50;7393953;19;20018;-61
2022/04/18 08:11:31;;;;;;;2.92;0.47;;;;;;;14.12;100.00;99892.34;7391342;19;20074;-61
2022/04/18 08:13:59;;;;;;;13.05;1.48;;;;;;;14.14;100.00;99890.53;7390351;19;20010;-61
2022/04/18 08:16:40;;;;;;;5.40;2.10;;;;;;;14.30;100.00;99891.94;7391818;19;20132;-61
2022/04/18 08:19:39;;;;;;;0.90;0.57;;;;;;;14.03;100.00;99884.13;7389978;19;20007;-61
2022/04/18 08:22:06;;;;;;;2.83;0.98;;;;;;;14.10;100.00;99889.25;7390468;19;20070;-61
2022/04/18 08:24:37;;;;;;;6.05;1.60;;;;;;;14.26;100.00;99885.78;7391331;19;20459;-61
2022/04/18 08:27:30;;;;;;;15.45;3.20;;;;;;;14.46;100.00;99887.72;7390982;19;20463;-61
2022/04/18 08:30:11;;;;;;;6.30;1.38;;;;;;;14.51;100.00;99882.13;7389621;19;20031;-61
2022/04/18 08:32:50;;;;;;;3.42;1.45;;;;;;;14.49;100.00;99893.06;7389706;19;20019;-61
2022/04/18 08:35:17;;;;;;;16.90;2.58;;;;;;;14.64;100.00;99898.53;7390172;19;20010;-61
2022/04/18 08:37:43;;;;;;;11.35;1.67;;;;;;;14.86;100.00;99898.59;7392354;19;20011;-61
2022/04/18 08:40:20;;;;;;;4.47;1.17;;;;;;;15.05;100.00;99906.06;7397424;19;20470;-61
2022/04/18 08:42:52;;;;;;;2.33;1.88;;;;;;;15.18;100.00;99895.13;7391087;19;20014;-62
2022/04/18 08:45:22;;;;;;;1.55;1.35;;;;;;;14.91;100.00;99890.22;7389993;19;20010;-61
2022/04/18 08:53:28;;;;;;;1.35;0.65;;;;;;;15.41;100.00;99901.59;7398078;19;20070;-61
2022/04/18 08:55:55;;;;;;;0.77;0.77;;;;;;;15.70;100.00;99897.56;7398711;19;20345;-61
2022/04/18 08:58:29;;;;;;;2.80;0.57;;;;;;;15.81;100.00;99901.13;7397176;19;20436;-61
2022/04/18 09:00:59;;;;;;;1.15;0.77;;;;;;;15.63;100.00;99903.69;7397555;19;20011;-61
2022/04/18 09:03:43;;;;;;;2.47;0.40;;;;;;;15.47;100.00;99913.59;7398852;19;20010;-61
2022/04/18 09:06:12;;;;;;;1.55;0.98;;;;;;;15.54;100.00;99909.53;7395206;19;20039;-61
2022/04/18 09:08:42;;;;;;;0.60;0.50;;;;;;;15.52;100.00;99900.84;7398235;19;20066;-61
2022/04/18 09:11:10;;;;;;;0.20;0.20;;;;;;;15.41;100.00;99904.38;7395941;19;20130;-61
2022/04/18 09:13:43;;;;;;;4.05;0.40;;;;;;;15.56;100.00;99901.38;7394885;19;20010;-61
2022/04/18 09:16:16;;;;;;;0.43;0.43;;;;;;;15.70;100.00;99903.19;7397214;19;20014;-61
2022/04/18 09:18:42;;;;;;;4.88;0.85;;;;;;;15.92;100.00;99900.34;7397150;19;20366;-61
2022/04/18 09:21:25;;;;;;;2.70;0.55;;;;;;;16.02;100.00;99890.41;7395919;19;20467;-61
2022/04/18 09:23:51;;;;;;;6.53;0.55;;;;;;;16.03;100.00;99897.53;7396272;19;20351;-61
2022/04/18 09:26:36;;;;;;;0.20;0.10;;;;;;;15.95;100.00;99893.72;7397160;19;20018;-61
2022/04/18 09:29:07;;;;;;;2.40;0.38;;;;;;;15.90;100.00;99883.25;7395767;19;20474;-61
2022/04/18 09:31:40;;;;;;;0.47;0.47;;;;;;;15.80;100.00;99896.03;7395004;19;20404;-61
2022/04/18 09:34:21;;;;;;;1.30;0.52;;;;;;;15.87;100.00;99898.34;7400346;19;20010;-62
2022/04/18 09:36:48;;;;;;;2.15;0.50;;;;;;;16.10;100.00;99899.84;7396764;19;20022;-61
2022/04/18 09:39:23;;;;;;;0.10;0.10;;;;;;;16.19;100.00;99893.97;7400247;19;20011;-61
2022/04/18 09:42:10;;;;;;;0.30;0.10;;;;;;;16.19;100.00;99896.78;7395558;19;20010;-61
2022/04/18 09:44:56;;;;;;;3.10;0.55;;;;;;;16.34;100.00;99900.06;7398006;19;20018;-62
2022/04/18 09:47:26;;;;;;;0.20;0.10;;;;;;;16.26;100.00;99898.28;7395514;19;20039;-61
2022/04/18 09:49:54;;;;;;;0.43;0.10;;;;;;;16.17;100.00;99902.13;7397830;19;20021;-61
2022/04/18 09:52:27;;;;;;;0.95;0.35;;;;;;;16.18;100.00;99898.03;7392922;19;20471;-61
2022/04/18 09:54:55;;;;;;;0.70;0.63;;;;;;;16.11;100.00;99909.81;7396503;19;20357;-61
2022/04/18 09:57:24;;;;;;;5.00;0.63;;;;;;;16.21;100.00;99907.50;7397230;19;20031;-61
2022/04/18 09:59:52;;;;;;;1.60;1.00;;;;;;;16.32;100.00;99908.25;7396066;19;20011;-62
2022/04/18 10:02:19;;;;;;;0.57;0.43;;;;;;;16.35;100.00;99904.38;7397945;19;20010;-62
2022/04/18 10:04:46;;;;;;;2.72;0.65;;;;;;;16.28;100.00;99904.94;7396135;19;20475;-62
2022/04/18 10:07:16;;;;;;;0.40;0.20;;;;;;;16.40;100.00;99900.81;7394273;19;20368;-62
2022/04/18 10:09:43;;;;;;;0.43;0.25;;;;;;;16.62;100.00;99897.97;7399830;19;20011;-61
2022/04/18 10:12:11;;;;;;;1.27;0.57;;;;;;;17.14;100.00;99891.59;7394938;19;20030;-62
2022/04/18 10:14:39;;;;;;;1.00;0.30;;;;;;;17.37;100.00;99893.78;7399847;19;20018;-62
2022/04/18 10:17:09;;;;;;;8.75;0.30;;;;;;;17.50;100.00;99896.00;7395592;19;20015;-62
2022/04/18 10:20:15;;;;;;;3.03;1.17;;;;;;;17.76;99.43;99892.78;7396049;19;20648;-62
2022/04/18 10:23:03;;;;;;;0.25;0.25;;;;;;;17.79;97.78;99898.13;7396917;19;20074;-62
2022/04/18 10:25:49;;;;;;;0.85;0.57;;;;;;;17.76;94.58;99890.69;7395009;19;20360;-62
2022/04/18 10:28:23;;;;;;;1.15;0.50;;;;;;;17.61;97.35;99901.56;7395381;19;20006;-62
2022/04/18 10:30:57;;;;;;;2.40;0.30;;;;;;;17.51;95.04;99897.56;7394989;19;20014;-62
2022/04/18 10:33:24;;;;;;;0.38;0.20;;;;;;;17.68;96.69;99895.38;7396903;19;20491;-64
2022/04/18 10:35:54;;;;;;;0.52;0.38;;;;;;;17.74;90.49;99904.53;7395930;19;20503;-62
2022/04/18 10:38:25;;;;;;;6.05;0.43;;;;;;;17.71;89.13;99894.34;7396463;19;20096;-62
2022/04/18 10:41:14;;;;;;;0.10;0.10;;;;;;;17.99;90.09;99892.06;7392727;19;20015;-63
2022/04/18 10:43:53;;;;;;;3.22;0.55;;;;;;;18.45;89.22;99898.81;7395225;19;20370;-62
2022/04/18 10:46:20;;;;;;;4.18;0.40;;;;;;;18.66;88.96;99894.22;7395576;19;20010;-63
2022/04/18 10:48:55;;;;;;;1.95;0.30;;;;;;;18.52;86.26;99892.56;7397653;19;20013;-63
2022/04/18 10:51:33;;;;;;;3.13;0.30;;;;;;;18.42;85.64;99888.56;7394835;19;20467;-63
2022/04/18 10:54:11;;;;;;;0.95;0.30;;;;;;;18.04;88.47;99896.88;7395330;19;20015;-62
2022/04/18 10:56:49;;;;;;;0.10;0.10;;;;;;;17.99;86.15;99892.06;7397630;19;20015;-62
2022/04/18 10:59:45;;;;;;;1.85;0.30;;;;;;;17.81;82.53;99898.34;7397651;19;20021;-62
2022/04/18 11:02:42;;;;;;;3.75;0.47;;;;;;;17.83;88.01;99907.03;7394448;19;20019;-62
2022/04/18 11:05:08;;;;;;;1.50;0.43;;;;;;;17.96;87.92;99897.97;7398575;19;20010;-62
2022/04/18 13:38:47;;;;;;;0.20;0.08;;;;;;;17.81;70.48;99830.75;7393360;19;20021;-89
2022/04/18 13:41:13;;;;;;;4.57;0.57;;;;;;;17.88;70.73;99830.16;7395544;19;20078;-89
2022/04/18 13:43:40;;;;;;;0.52;0.20;;;;;;;18.14;70.44;99829.66;7393400;19;20014;-88
2022/04/18 13:46:06;;;;;;;0.65;0.30;;;;;;;18.25;69.82;99825.94;7395941;19;20469;-89
2022/04/18 13:48:34;;;;;;;2.50;0.30;;;;;;;18.32;69.92;99823.28;7400289;19;20029;-89
2022/04/18 13:51:00;;;;;;;10.23;0.45;;;;;;;18.35;70.28;99822.25;7399126;19;20523;-89
2022/04/18 13:53:26;;;;;;;0.52;0.10;;;;;;;18.24;67.98;99828.00;7398566;19;20018;-89
2022/04/18 13:55:53;;;;;;;0.30;0.10;;;;;;;18.04;69.11;99823.59;7400269;19;20022;-90
2022/04/18 13:58:19;;;;;;;1.55;0.20;;;;;;;18.08;68.65;99815.59;7396095;19;20019;-90
2022/04/18 14:00:45;;;;;;;0.35;0.10;;;;;;;18.14;68.08;99824.78;7399498;19;20038;-90
2022/04/18 14:03:11;;;;;;;0.38;0.38;;;;;;;18.11;66.96;99820.19;7397224;19;20018;-91
2022/04/18 14:05:39;;;;;;;0.45;0.10;;;;;;;18.08;67.39;99815.59;7401674;19;20010;-93
2022/04/18 14:08:06;;;;;;;0.13;0.10;;;;;;;18.18;69.21;99819.63;7396365;19;20040;-90
2022/04/18 14:10:32;;;;;;;0.20;0.20;;;;;;;18.18;69.77;99819.63;7397431;19;20018;-93
2022/04/18 14:12:58;;;;;;;0.10;0.10;;;;;;;18.14;67.13;99816.34;7396054;19;20029;-90
2022/04/18 14:20:54;;;;;;;0.38;0.25;;;;;;;18.21;68.22;99817.03;7396908;19;20074;-90
2022/04/18 14:23:20;;;;;;;0.22;0.10;;;;;;;18.06;67.11;99815.38;7396723;19;20356;-90
2022/04/18 14:25:46;;;;;;;0.60;0.10;;;;;;;17.89;68.08;99811.19;7397108;19;20019;-91
2022/04/18 14:28:12;;;;;;;3.28;0.43;;;;;;;17.78;69.52;99802.88;7394177;19;20011;-91
2022/04/18 14:30:40;;;;;;;1.80;0.25;;;;;;;17.68;68.01;99798.84;7396999;19;20014;-91
2022/04/18 14:33:06;;;;;;;2.22;0.30;;;;;;;17.65;70.06;99806.28;7394882;19;20031;-90
2022/04/18 14:35:32;;;;;;;0.10;0.08;;;;;;;17.70;70.42;99815.97;7393761;19;20039;-89
2022/04/18 14:37:58;;;;;;;0.30;0.20;;;;;;;17.82;73.13;99808.97;7391250;19;20016;-90
2022/04/18 14:40:27;;;;;;;0.63;0.25;;;;;;;17.83;73.20;99810.47;7394260;19;20371;-90